Time;durP1;ratioP1;P1;durP2;ratioP2;P2;SDS_P1;SDS_P2;PMS_P1;PMS_P2;Temp;Humidity;BMP_temperature;BMP_pressure;BME280_temperature;BME280_humidity;BME280_pressure;Samples;Min_cycle;Max_cycle;Signal;HPM_P1;HPM_P2
2021/09/25 00:02:05;;;;;;;12.57;6.45;;;13.50;99.90;;;;;;5061436;28;20032;-83
2021/09/25 00:04:31;;;;;;;11.85;6.75;;;13.50;99.90;;;;;;5060894;28;20021;-81
2021/09/25 00:06:56;;;;;;;11.10;6.40;;;13.50;99.90;;;;;;5082957;28;20461;-84
2021/09/25 00:09:22;;;;;;;11.35;6.47;;;13.60;99.90;;;;;;5083716;28;20103;-84
2021/09/25 00:11:48;;;;;;;10.32;6.05;;;13.60;99.90;;;;;;5082649;28;20036;-84
2021/09/25 00:14:14;;;;;;;10.27;6.63;;;13.70;99.90;;;;;;5070347;28;20025;-83
2021/09/25 00:16:40;;;;;;;9.90;6.50;;;13.60;99.90;;;;;;5063530;28;20045;-82
2021/09/25 00:19:05;;;;;;;10.30;6.45;;;13.50;99.90;;;;;;5062446;28;20021;-84
2021/09/25 00:21:31;;;;;;;11.90;6.85;;;13.50;99.90;;;;;;5063556;28;20029;-83
2021/09/25 00:23:57;;;;;;;9.32;6.05;;;13.50;99.90;;;;;;5063059;28;20438;-83
2021/09/25 00:26:23;;;;;;;12.68;6.22;;;13.50;99.90;;;;;;5063588;28;20022;-84
2021/09/25 00:28:49;;;;;;;10.30;6.32;;;13.40;99.90;;;;;;5063947;28;20051;-85
2021/09/25 00:31:15;;;;;;;9.55;6.25;;;13.40;99.90;;;;;;5063542;28;20088;-84
2021/09/25 00:33:41;;;;;;;9.80;6.65;;;13.30;99.90;;;;;;5062777;28;20139;-84
2021/09/25 00:36:07;;;;;;;10.45;6.18;;;13.40;99.90;;;;;;5063494;28;20032;-85
2021/09/25 00:38:33;;;;;;;10.27;7.22;;;13.30;99.90;;;;;;5077830;28;20052;-84
2021/09/25 00:41:00;;;;;;;10.27;6.35;;;13.50;99.90;;;;;;5063547;28;20020;-84
2021/09/25 00:43:26;;;;;;;12.77;6.97;;;13.30;99.90;;;;;;5063748;28;20068;-83
2021/09/25 00:45:52;;;;;;;11.55;6.82;;;13.20;99.90;;;;;;5063340;28;20496;-83
2021/09/25 00:48:17;;;;;;;9.27;6.35;;;13.20;99.90;;;;;;5066262;28;20093;-84
2021/09/25 00:50:43;;;;;;;13.13;6.20;;;13.30;99.90;;;;;;5060271;28;20033;-82
2021/09/25 00:53:09;;;;;;;12.00;6.35;;;13.30;99.90;;;;;;5065670;28;20028;-83
2021/09/25 00:55:35;;;;;;;9.60;5.90;;;13.20;99.90;;;;;;5081380;28;20028;-83
2021/09/25 00:58:03;;;;;;;8.90;5.72;;;13.20;99.90;;;;;;5079323;28;20028;-82
2021/09/25 01:00:31;;;;;;;9.60;6.20;;;13.20;99.90;;;;;;5080655;28;20021;-83
2021/09/25 01:02:56;;;;;;;10.32;6.28;;;13.10;99.90;;;;;;5078301;28;20449;-83
2021/09/25 01:05:23;;;;;;;11.88;6.43;;;13.10;99.90;;;;;;5061964;28;20017;-84
2021/09/25 01:07:50;;;;;;;10.55;6.90;;;13.00;99.90;;;;;;5067656;28;20025;-84
2021/09/25 01:10:16;;;;;;;10.90;6.47;;;13.00;99.90;;;;;;5088339;28;20078;-85
2021/09/25 01:12:43;;;;;;;16.65;7.00;;;13.00;99.90;;;;;;5086662;28;20076;-85
2021/09/25 01:15:10;;;;;;;14.25;8.10;;;13.00;99.90;;;;;;5067775;28;20054;-84
2021/09/25 01:17:36;;;;;;;11.70;7.22;;;12.90;99.90;;;;;;5064857;28;20028;-85
2021/09/25 01:20:02;;;;;;;10.77;7.35;;;12.90;99.90;;;;;;5062851;28;20496;-86
2021/09/25 01:22:28;;;;;;;12.85;8.05;;;12.90;99.90;;;;;;5064325;28;20021;-83
2021/09/25 01:24:54;;;;;;;15.43;8.77;;;12.90;99.90;;;;;;5064972;28;20063;-84
2021/09/25 01:27:20;;;;;;;16.55;8.45;;;12.90;99.90;;;;;;5064802;28;20029;-84
2021/09/25 01:29:45;;;;;;;16.05;8.73;;;12.80;99.90;;;;;;5081109;28;20411;-83
2021/09/25 01:32:12;;;;;;;15.18;7.90;;;12.80;99.90;;;;;;5068938;28;20218;-84
2021/09/25 01:34:38;;;;;;;15.43;8.45;;;12.80;99.90;;;;;;5065059;28;20029;-84
2021/09/25 01:37:05;;;;;;;16.27;8.48;;;12.70;99.90;;;;;;5065731;28;20020;-84
2021/09/25 01:39:31;;;;;;;13.82;7.85;;;12.80;99.90;;;;;;5064610;28;20078;-84
2021/09/25 01:41:58;;;;;;;16.45;9.00;;;12.80;99.90;;;;;;5064383;28;20139;-86
2021/09/25 01:44:26;;;;;;;12.65;8.45;;;12.80;99.90;;;;;;5064823;28;20044;-85
2021/09/25 01:46:55;;;;;;;16.10;8.20;;;12.70;99.90;;;;;;5067085;28;20021;-84
2021/09/25 01:49:21;;;;;;;16.48;8.27;;;12.70;99.90;;;;;;5083329;28;20445;-85
2021/09/25 01:51:47;;;;;;;14.55;7.95;;;12.70;99.90;;;;;;5082719;28;20040;-84
2021/09/25 01:54:15;;;;;;;14.73;7.43;;;12.60;99.90;;;;;;5082579;28;20047;-85
2021/09/25 01:56:41;;;;;;;11.75;7.45;;;12.50;99.90;;;;;;5077500;28;20024;-85
2021/09/25 01:59:06;;;;;;;10.85;7.10;;;12.20;99.90;;;;;;5082264;28;20481;-85
2021/09/25 02:01:32;;;;;;;12.13;7.93;;;12.40;99.90;;;;;;5081992;28;20025;-85
2021/09/25 02:03:58;;;;;;;13.45;8.15;;;12.40;99.90;;;;;;5080054;28;20027;-83
2021/09/25 02:06:24;;;;;;;11.30;7.68;;;12.40;99.90;;;;;;5064140;28;20067;-85
2021/09/25 02:08:49;;;;;;;12.95;7.80;;;12.40;99.90;;;;;;5081983;28;20483;-85
2021/09/25 02:11:15;;;;;;;15.57;8.85;;;12.40;99.90;;;;;;5092972;28;20028;-83
2021/09/25 02:13:41;;;;;;;13.32;8.30;;;12.30;99.90;;;;;;5092115;28;20040;-84
2021/09/25 02:16:08;;;;;;;12.75;7.80;;;12.70;99.90;;;;;;5091043;28;20029;-85
2021/09/25 02:18:34;;;;;;;13.20;8.07;;;12.30;99.90;;;;;;5083543;28;20035;-86
2021/09/25 02:21:00;;;;;;;14.02;7.30;;;12.30;99.90;;;;;;5082197;28;20056;-85
2021/09/25 02:23:26;;;;;;;12.55;7.75;;;12.30;99.90;;;;;;5078986;28;20033;-85
2021/09/25 02:25:51;;;;;;;14.00;7.88;;;12.40;99.90;;;;;;5064202;28;20060;-86
2021/09/25 02:28:17;;;;;;;12.10;8.18;;;12.30;99.90;;;;;;5062929;28;20530;-86
2021/09/25 02:30:43;;;;;;;12.98;7.40;;;12.30;99.90;;;;;;5063634;28;20025;-85
2021/09/25 02:33:08;;;;;;;16.17;7.95;;;12.20;99.90;;;;;;5069818;28;20021;-85
2021/09/25 02:35:34;;;;;;;12.60;7.95;;;12.20;99.90;;;;;;5073972;28;20021;-85
2021/09/25 02:38:00;;;;;;;15.70;7.47;;;12.30;99.90;;;;;;5073166;28;20044;-84
2021/09/25 02:40:26;;;;;;;11.65;6.88;;;12.20;99.90;;;;;;5073616;28;20013;-84
2021/09/25 02:42:52;;;;;;;14.73;7.63;;;12.20;99.90;;;;;;5073679;28;20036;-84
2021/09/25 02:45:18;;;;;;;14.27;7.13;;;12.20;99.90;;;;;;5069645;28;20021;-85
2021/09/25 02:47:45;;;;;;;18.05;8.18;;;12.30;99.90;;;;;;5062411;28;20025;-85
2021/09/25 02:50:12;;;;;;;14.73;7.50;;;12.20;99.90;;;;;;5061453;28;20040;-84
2021/09/25 02:52:38;;;;;;;15.05;7.60;;;12.10;99.90;;;;;;5061441;28;20163;-84
2021/09/25 02:55:06;;;;;;;13.35;7.22;;;12.20;99.90;;;;;;5065894;28;20036;-84
2021/09/25 02:57:31;;;;;;;14.85;6.72;;;12.20;99.90;;;;;;5081542;28;20054;-84
2021/09/25 02:59:57;;;;;;;12.20;7.28;;;12.20;99.90;;;;;;5070434;28;20041;-83
2021/09/25 03:02:23;;;;;;;12.73;6.70;;;12.20;99.90;;;;;;5062353;28;20032;-84
2021/09/25 03:04:48;;;;;;;13.43;6.78;;;12.00;99.90;;;;;;5061607;28;20040;-85
2021/09/25 03:07:14;;;;;;;18.92;7.78;;;12.20;99.90;;;;;;5061909;28;20040;-83
2021/09/25 03:09:40;;;;;;;13.50;7.00;;;12.40;99.90;;;;;;5063357;28;20041;-82
2021/09/25 03:12:06;;;;;;;15.32;7.07;;;12.20;99.90;;;;;;5062596;28;20029;-83
2021/09/25 03:14:31;;;;;;;11.10;7.20;;;12.10;99.90;;;;;;5060845;28;20037;-82
2021/09/25 03:16:57;;;;;;;11.60;6.38;;;12.10;99.90;;;;;;5060752;28;20032;-83
2021/09/25 03:19:23;;;;;;;9.73;6.43;;;12.10;99.90;;;;;;5059902;28;20048;-84
2021/09/25 03:21:48;;;;;;;11.70;6.50;;;12.00;99.90;;;;;;5054307;28;20037;-84
2021/09/25 03:24:14;;;;;;;12.18;6.32;;;12.00;99.90;;;;;;5060165;28;20025;-83
2021/09/25 03:26:40;;;;;;;12.10;6.68;;;12.00;99.90;;;;;;5063896;28;20025;-85
2021/09/25 03:29:05;;;;;;;12.50;7.40;;;12.00;99.90;;;;;;5065829;28;20100;-84
2021/09/25 03:31:31;;;;;;;12.43;6.72;;;12.10;99.90;;;;;;5065203;28;20029;-82
2021/09/25 03:33:57;;;;;;;11.73;6.35;;;11.90;99.90;;;;;;5064904;28;20377;-83
2021/09/25 03:36:23;;;;;;;12.00;6.75;;;11.90;99.90;;;;;;5063456;28;20028;-83
2021/09/25 03:38:49;;;;;;;13.65;6.97;;;11.80;99.90;;;;;;5063670;28;20039;-83
2021/09/25 03:41:14;;;;;;;12.05;6.82;;;11.70;99.90;;;;;;5066638;22;20524;-82
2021/09/25 03:43:40;;;;;;;14.75;8.45;;;11.70;99.90;;;;;;5039258;28;20025;-83
2021/09/25 03:46:06;;;;;;;13.02;6.82;;;11.60;99.90;;;;;;5054979;28;20056;-83
2021/09/25 03:48:31;;;;;;;11.98;7.30;;;11.70;99.90;;;;;;5052919;28;20021;-82
2021/09/25 03:50:58;;;;;;;11.85;7.38;;;11.50;99.90;;;;;;5016293;28;20034;-82
2021/09/25 03:53:24;;;;;;;10.98;7.30;;;11.40;99.90;;;;;;5016558;28;20485;-84
2021/09/25 03:55:50;;;;;;;13.70;6.85;;;11.20;99.90;;;;;;5016722;28;20022;-82
2021/09/25 03:58:15;;;;;;;11.10;6.95;;;11.20;99.90;;;;;;5037468;28;20029;-82
2021/09/25 04:00:43;;;;;;;11.88;7.05;;;11.30;99.90;;;;;;5033900;28;20359;-82
2021/09/25 04:03:13;;;;;;;10.30;6.68;;;11.30;99.90;;;;;;5016502;28;20026;-82
2021/09/25 04:05:40;;;;;;;11.32;6.82;;;11.10;99.90;;;;;;5017016;28;20021;-83
2021/09/25 04:08:06;;;;;;;10.38;6.47;;;11.70;99.90;;;;;;5034818;28;20033;-82
2021/09/25 04:10:32;;;;;;;9.55;6.10;;;11.20;99.90;;;;;;5033936;28;20040;-82
2021/09/25 04:12:58;;;;;;;10.45;6.30;;;11.10;99.90;;;;;;5016540;28;20037;-82
2021/09/25 04:15:23;;;;;;;13.20;6.90;;;10.80;99.90;;;;;;5046716;28;20041;-83
2021/09/25 04:17:50;;;;;;;11.82;6.82;;;11.00;99.90;;;;;;5045122;28;20033;-83
2021/09/25 04:20:16;;;;;;;11.63;6.30;;;11.00;99.90;;;;;;5014435;28;20029;-82
2021/09/25 04:22:41;;;;;;;11.73;5.65;;;11.00;99.90;;;;;;5032401;28;20060;-82
2021/09/25 04:25:07;;;;;;;10.38;6.25;;;11.40;99.90;;;;;;5031020;28;20132;-82
2021/09/25 04:27:33;;;;;;;12.55;6.30;;;11.00;99.90;;;;;;5014339;28;20473;-82
2021/09/25 04:30:01;;;;;;;10.50;6.38;;;11.90;99.90;;;;;;5030463;28;20040;-83
2021/09/25 04:32:27;;;;;;;9.45;5.47;;;10.90;99.90;;;;;;5030934;28;20032;-82
2021/09/25 04:34:53;;;;;;;11.43;6.68;;;11.90;99.90;;;;;;5029709;28;20052;-82
2021/09/25 04:37:19;;;;;;;10.73;6.68;;;11.00;99.90;;;;;;5024108;28;20041;-82
2021/09/25 04:39:44;;;;;;;9.32;5.82;;;11.00;99.90;;;;;;5013695;28;20063;-82
2021/09/25 04:42:10;;;;;;;9.85;6.10;;;11.10;99.90;;;;;;5031914;28;20347;-82
2021/09/25 04:44:36;;;;;;;8.95;5.88;;;11.20;99.90;;;;;;5030639;28;20116;-82
2021/09/25 04:47:01;;;;;;;9.50;5.78;;;11.50;99.90;;;;;;5028914;28;20140;-83
2021/09/25 04:49:27;;;;;;;9.30;6.25;;;11.20;99.90;;;;;;5044074;28;20033;-82
2021/09/25 04:51:53;;;;;;;10.40;5.80;;;11.20;99.90;;;;;;5050171;28;20033;-82
2021/09/25 04:54:18;;;;;;;10.40;6.03;;;11.20;99.90;;;;;;5038067;28;20045;-84
2021/09/25 04:56:44;;;;;;;10.88;6.07;;;11.10;99.90;;;;;;5013936;28;20025;-82
2021/09/25 04:59:10;;;;;;;9.35;5.88;;;11.10;99.90;;;;;;5032011;28;20478;-82
2021/09/25 05:01:35;;;;;;;11.68;6.63;;;11.20;99.90;;;;;;5031361;28;20075;-82
2021/09/25 05:04:02;;;;;;;11.40;6.13;;;12.20;99.90;;;;;;5031830;28;20451;-82
2021/09/25 05:06:29;;;;;;;10.80;6.15;;;11.00;99.90;;;;;;5013850;28;20028;-83
2021/09/25 05:08:55;;;;;;;10.85;6.28;;;11.30;99.90;;;;;;5034519;28;20090;-83
2021/09/25 05:11:21;;;;;;;11.07;6.35;;;11.10;99.90;;;;;;5050140;28;20083;-83
2021/09/25 05:13:46;;;;;;;9.88;5.78;;;11.10;99.90;;;;;;5032416;28;20030;-83
2021/09/25 05:16:12;;;;;;;11.73;6.22;;;11.90;99.90;;;;;;5045707;28;20634;-83
2021/09/25 05:18:38;;;;;;;11.77;6.55;;;11.00;99.90;;;;;;5042343;28;20033;-82
2021/09/25 05:21:03;;;;;;;11.02;6.25;;;12.20;99.90;;;;;;5013646;28;20036;-82
2021/09/25 05:23:29;;;;;;;9.05;5.80;;;11.40;99.90;;;;;;5031531;28;20018;-82
2021/09/25 05:25:55;;;;;;;16.33;6.50;;;11.20;99.90;;;;;;5031287;28;20029;-83
2021/09/25 05:28:20;;;;;;;10.82;6.22;;;11.20;99.90;;;;;;5013734;28;20037;-83
2021/09/25 05:30:46;;;;;;;10.40;5.55;;;11.50;99.90;;;;;;5012641;28;20033;-83
2021/09/25 05:33:12;;;;;;;10.20;5.93;;;11.30;99.90;;;;;;5029984;28;20044;-82
2021/09/25 05:35:40;;;;;;;10.63;5.63;;;11.20;99.90;;;;;;5013161;28;20461;-83
2021/09/25 05:38:05;;;;;;;9.10;5.68;;;11.20;99.90;;;;;;5031409;28;20523;-83
2021/09/25 05:40:31;;;;;;;10.90;5.22;;;11.40;99.90;;;;;;5030336;28;20120;-83
2021/09/25 05:42:57;;;;;;;12.98;6.03;;;11.50;99.90;;;;;;5031230;28;20060;-83
2021/09/25 05:45:22;;;;;;;13.23;6.55;;;11.40;99.90;;;;;;5013073;28;20025;-83
2021/09/25 05:47:48;;;;;;;13.55;6.10;;;11.30;99.90;;;;;;5031164;28;20037;-82
2021/09/25 05:50:14;;;;;;;10.30;6.10;;;11.40;99.90;;;;;;5027904;28;20037;-83
2021/09/25 05:52:40;;;;;;;9.00;6.10;;;11.40;99.90;;;;;;5013150;28;20057;-83
2021/09/25 05:55:07;;;;;;;13.73;5.80;;;11.60;99.90;;;;;;5031368;28;20037;-82
2021/09/25 05:57:33;;;;;;;8.80;5.18;;;11.50;99.90;;;;;;5031180;28;20053;-83
2021/09/25 05:59:59;;;;;;;9.18;6.35;;;11.50;99.90;;;;;;5030623;28;20029;-83
2021/09/25 06:02:25;;;;;;;9.00;5.72;;;11.10;99.90;;;;;;5012933;28;20370;-83
2021/09/25 06:04:51;;;;;;;9.90;6.38;;;11.30;99.90;;;;;;5031124;28;20489;-83
2021/09/25 06:07:18;;;;;;;10.60;6.38;;;11.20;99.90;;;;;;5012906;28;20040;-82
2021/09/25 06:09:44;;;;;;;11.15;6.13;;;11.00;99.90;;;;;;5064498;28;20440;-83
2021/09/25 06:12:10;;;;;;;10.85;6.43;;;11.00;99.90;;;;;;5042022;28;20124;-83
2021/09/25 06:14:36;;;;;;;9.63;6.45;;;11.00;99.90;;;;;;5012551;28;20440;-83
2021/09/25 06:17:02;;;;;;;9.20;5.82;;;11.00;99.90;;;;;;5030680;28;20053;-83
2021/09/25 06:19:27;;;;;;;10.48;6.60;;;11.00;99.90;;;;;;5030130;28;20064;-83
2021/09/25 06:21:53;;;;;;;12.20;6.97;;;10.90;99.90;;;;;;5012379;28;20044;-83
2021/09/25 06:24:19;;;;;;;10.43;6.25;;;11.00;99.90;;;;;;5040616;28;20029;-83
2021/09/25 06:26:45;;;;;;;13.50;6.28;;;11.60;99.90;;;;;;5032205;28;20025;-83
2021/09/25 06:29:11;;;;;;;10.95;6.05;;;11.40;99.90;;;;;;5035842;28;20084;-83
2021/09/25 06:31:37;;;;;;;9.93;6.38;;;11.40;99.90;;;;;;5012192;28;20494;-82
2021/09/25 06:34:02;;;;;;;13.48;6.13;;;11.60;99.90;;;;;;5030227;28;20088;-83
2021/09/25 06:36:28;;;;;;;9.82;6.15;;;12.10;99.90;;;;;;5012321;28;20105;-82
2021/09/25 06:38:54;;;;;;;9.95;5.72;;;12.20;99.90;;;;;;5046886;28;20025;-82
2021/09/25 06:41:19;;;;;;;11.02;6.20;;;12.20;99.90;;;;;;5029867;28;20024;-83
2021/09/25 06:43:46;;;;;;;9.32;5.55;;;12.30;99.90;;;;;;5031371;28;20032;-83
2021/09/25 06:46:13;;;;;;;8.48;5.32;;;12.60;99.90;;;;;;5048632;28;20025;-82
2021/09/25 06:48:39;;;;;;;9.00;6.07;;;13.20;99.90;;;;;;5032985;28;20083;-83
2021/09/25 06:51:06;;;;;;;9.82;6.13;;;12.40;99.90;;;;;;5042447;28;20164;-82
2021/09/25 06:53:32;;;;;;;9.43;5.78;;;13.90;99.90;;;;;;5049099;28;20028;-83
2021/09/25 06:55:57;;;;;;;11.10;6.00;;;12.80;99.90;;;;;;5043820;28;20029;-82
2021/09/25 06:58:23;;;;;;;8.88;5.72;;;13.00;99.90;;;;;;5034819;28;20029;-83
2021/09/25 07:00:50;;;;;;;10.80;6.15;;;13.90;99.90;;;;;;5045018;28;20104;-83
2021/09/25 07:03:17;;;;;;;10.43;6.25;;;13.70;99.90;;;;;;5051055;28;20017;-83
2021/09/25 07:05:43;;;;;;;10.07;5.65;;;13.60;99.90;;;;;;5031555;28;20029;-83
2021/09/25 07:08:08;;;;;;;9.85;6.65;;;13.30;99.90;;;;;;5032359;28;20025;-83
2021/09/25 07:10:36;;;;;;;10.13;6.05;;;13.50;99.90;;;;;;5027143;28;20021;-83
2021/09/25 07:13:02;;;;;;;10.38;6.35;;;13.30;99.90;;;;;;5020091;28;20106;-82
2021/09/25 07:15:28;;;;;;;10.45;6.18;;;14.20;99.90;;;;;;5033934;28;20029;-83
2021/09/25 07:17:54;;;;;;;11.02;6.63;;;13.30;99.90;;;;;;5052426;28;20037;-84
2021/09/25 07:20:20;;;;;;;9.85;5.15;;;13.20;99.90;;;;;;5034075;28;20054;-83
2021/09/25 07:22:50;;;;;;;11.70;6.35;;;13.40;99.90;;;;;;5050896;28;20048;-84
2021/09/25 07:25:17;;;;;;;11.48;6.68;;;13.80;99.90;;;;;;5045164;28;20565;-83
2021/09/25 07:27:43;;;;;;;9.13;6.20;;;13.50;99.90;;;;;;5028206;28;20088;-82
2021/09/25 07:30:09;;;;;;;8.98;5.93;;;13.60;99.90;;;;;;5032779;28;20028;-84
2021/09/25 07:32:35;;;;;;;9.65;6.05;;;13.70;99.90;;;;;;5032480;28;20025;-84
2021/09/25 07:35:01;;;;;;;11.75;6.40;;;14.20;99.90;;;;;;5049944;28;20098;-84
2021/09/25 07:37:27;;;;;;;11.35;5.97;;;13.70;99.90;;;;;;5056133;28;20033;-84
2021/09/25 07:39:53;;;;;;;9.70;5.57;;;14.20;99.90;;;;;;5033916;28;20090;-84
2021/09/25 07:42:21;;;;;;;10.35;5.95;;;13.80;99.90;;;;;;5034459;28;20103;-85
2021/09/25 07:44:48;;;;;;;10.57;6.60;;;14.00;99.90;;;;;;5048078;28;20082;-85
2021/09/25 07:47:14;;;;;;;9.32;6.13;;;13.80;99.90;;;;;;5033461;28;20204;-84
2021/09/25 07:49:39;;;;;;;8.73;5.10;;;13.90;99.90;;;;;;5051148;28;20040;-84
2021/09/25 07:52:05;;;;;;;10.60;6.10;;;14.40;99.90;;;;;;5050197;28;20033;-84
2021/09/25 07:54:32;;;;;;;12.55;5.90;;;14.30;99.90;;;;;;5032442;28;20052;-84
2021/09/25 07:56:57;;;;;;;10.75;5.57;;;14.50;99.90;;;;;;5050653;28;20649;-84
2021/09/25 07:59:23;;;;;;;11.15;6.22;;;15.20;99.90;;;;;;5033094;28;20028;-84
2021/09/25 08:01:50;;;;;;;7.53;4.93;;;14.90;99.90;;;;;;5044729;28;20076;-84
2021/09/25 08:04:15;;;;;;;9.65;5.28;;;15.30;99.90;;;;;;5028287;28;20060;-84
2021/09/25 08:06:41;;;;;;;9.30;5.40;;;15.10;99.90;;;;;;5033782;28;20036;-84
2021/09/25 08:09:07;;;;;;;9.00;5.75;;;15.30;99.90;;;;;;5051335;28;20036;-81
2021/09/25 08:11:33;;;;;;;14.90;5.28;;;15.80;99.90;;;;;;5034602;28;20473;-82
2021/09/25 08:13:59;;;;;;;8.70;4.82;;;15.50;99.90;;;;;;5021407;28;20025;-82
2021/09/25 08:16:25;;;;;;;9.70;5.57;;;15.70;99.90;;;;;;5041512;28;20025;-81
2021/09/25 08:18:51;;;;;;;10.57;5.05;;;15.60;99.90;;;;;;5052844;28;20095;-82
2021/09/25 08:21:17;;;;;;;10.90;4.72;;;15.70;99.90;;;;;;5037092;28;20127;-81
2021/09/25 08:23:43;;;;;;;10.30;5.05;;;15.80;99.90;;;;;;5069138;28;20021;-84
2021/09/25 08:26:08;;;;;;;8.15;4.50;;;15.90;99.90;;;;;;5048056;28;20109;-82
2021/09/25 08:28:35;;;;;;;9.20;4.85;;;16.10;99.90;;;;;;5054066;28;20049;-84
2021/09/25 08:31:01;;;;;;;10.63;5.07;;;16.30;99.90;;;;;;5061986;28;20028;-84
2021/09/25 08:33:26;;;;;;;12.43;4.88;;;16.30;99.90;;;;;;5058317;28;20090;-84
2021/09/25 08:35:52;;;;;;;9.45;5.10;;;16.40;99.90;;;;;;5065709;28;20024;-83
2021/09/25 08:38:18;;;;;;;10.43;4.80;;;16.40;99.90;;;;;;5067171;28;20047;-83
2021/09/25 08:40:44;;;;;;;9.38;5.65;;;16.40;99.90;;;;;;5066634;28;20517;-83
2021/09/25 08:43:09;;;;;;;10.02;5.60;;;16.50;99.90;;;;;;5071014;28;20025;-84
2021/09/25 08:45:36;;;;;;;10.90;6.00;;;16.50;99.90;;;;;;5068111;28;20055;-83
2021/09/25 08:48:01;;;;;;;7.72;5.25;;;16.60;99.90;;;;;;5070544;28;20056;-83
2021/09/25 08:50:28;;;;;;;9.40;5.00;;;16.60;99.90;;;;;;5069058;28;20762;-84
2021/09/25 08:52:55;;;;;;;8.90;5.18;;;16.70;99.90;;;;;;5048924;28;20021;-83
2021/09/25 08:55:20;;;;;;;10.40;5.45;;;16.90;99.90;;;;;;5069890;28;20037;-85
2021/09/25 08:57:46;;;;;;;7.72;4.45;;;17.00;99.90;;;;;;5068503;28;20044;-84
2021/09/25 09:00:32;;;;;;;10.48;5.07;;;17.30;99.90;;;;;;5048031;28;20088;-84
2021/09/25 09:03:21;;;;;;;10.55;5.07;;;17.50;99.90;;;;;;5066075;28;20025;-84
2021/09/25 09:05:52;;;;;;;8.13;4.82;;;17.60;99.90;;;;;;5046801;28;20030;-84
2021/09/25 09:08:21;;;;;;;9.38;4.45;;;17.80;99.90;;;;;;5061360;28;20029;-84
2021/09/25 09:10:47;;;;;;;8.18;4.72;;;17.90;99.90;;;;;;5056661;28;20456;-84
2021/09/25 09:13:15;;;;;;;8.93;4.82;;;18.10;99.90;;;;;;5060486;28;20060;-84
2021/09/25 09:15:42;;;;;;;8.27;4.18;;;18.30;99.90;;;;;;5066638;28;20017;-85
2021/09/25 09:18:17;;;;;;;8.05;4.45;;;18.30;99.90;;;;;;5051056;28;20052;-85
2021/09/25 09:21:03;;;;;;;9.60;4.47;;;18.50;99.90;;;;;;5052516;28;20036;-85
2021/09/25 09:23:35;;;;;;;8.68;4.97;;;18.60;99.90;;;;;;5055670;28;20046;-86
2021/09/25 09:26:02;;;;;;;8.88;4.93;;;18.80;99.90;;;;;;5075255;28;20040;-86
2021/09/25 09:28:32;;;;;;;9.18;4.60;;;18.90;99.90;;;;;;5053176;28;20036;-85
2021/09/25 09:31:00;;;;;;;7.72;4.82;;;19.10;99.90;;;;;;5054726;28;20056;-86
2021/09/25 09:33:35;;;;;;;7.35;4.78;;;19.10;99.90;;;;;;5055755;28;20064;-82
2021/09/25 09:36:19;;;;;;;7.57;4.50;;;19.30;99.90;;;;;;5064968;28;20013;-83
2021/09/25 09:38:51;;;;;;;9.93;4.40;;;19.70;99.90;;;;;;5069400;28;20049;-84
2021/09/25 09:41:43;;;;;;;7.68;4.20;;;19.80;99.90;;;;;;5046250;22;20057;-82
2021/09/25 09:44:21;;;;;;;7.55;4.70;;;20.00;99.90;;;;;;5015082;28;20049;-84
2021/09/25 09:46:55;;;;;;;8.10;4.13;;;20.10;99.90;;;;;;5016275;28;20025;-82
2021/09/25 09:49:29;;;;;;;7.53;4.60;;;20.20;99.90;;;;;;5010562;28;20022;-83
2021/09/25 09:52:13;;;;;;;7.22;4.43;;;20.10;99.90;;;;;;5015542;28;20037;-84
2021/09/25 09:54:40;;;;;;;8.30;4.63;;;20.10;99.90;;;;;;5018480;28;20026;-84
2021/09/25 09:57:17;;;;;;;8.25;4.30;;;20.20;99.90;;;;;;4996210;28;20039;-85
2021/09/25 09:59:43;;;;;;;6.32;3.85;;;20.40;99.90;;;;;;4981651;28;20097;-82
2021/09/25 10:02:09;;;;;;;7.53;3.80;;;20.70;99.90;;;;;;5001428;28;20518;-84
2021/09/25 10:04:36;;;;;;;6.18;3.60;;;20.80;99.90;;;;;;5000515;28;20101;-83
2021/09/25 10:07:02;;;;;;;7.13;3.05;;;21.00;99.90;;;;;;4994623;28;20019;-83
2021/09/25 10:09:31;;;;;;;6.97;4.00;;;21.10;99.90;;;;;;4995374;28;20406;-84
2021/09/25 10:12:06;;;;;;;5.15;3.17;;;21.20;99.90;;;;;;4993857;28;20046;-83
2021/09/25 10:14:34;;;;;;;5.47;3.28;;;21.40;99.90;;;;;;5003053;28;20014;-84
2021/09/25 10:17:03;;;;;;;5.40;3.10;;;21.40;99.90;;;;;;5007418;28;20048;-85
2021/09/25 10:19:33;;;;;;;6.13;2.80;;;21.50;99.90;;;;;;5006414;28;20478;-85
2021/09/25 10:22:22;;;;;;;7.05;2.92;;;21.60;99.90;;;;;;5000729;28;20597;-84
2021/09/25 10:24:55;;;;;;;5.38;3.08;;;21.90;99.90;;;;;;4997900;28;20013;-82
2021/09/25 10:27:22;;;;;;;6.00;3.08;;;22.00;99.90;;;;;;5010074;28;20031;-85
2021/09/25 10:29:52;;;;;;;7.32;3.00;;;22.00;99.90;;;;;;4996416;28;20154;-81
2021/09/25 10:32:26;;;;;;;5.70;3.28;;;22.00;99.90;;;;;;4996501;28;20022;-83
2021/09/25 10:35:16;;;;;;;9.25;3.85;;;22.20;99.90;;;;;;4998527;28;20038;-80
2021/09/25 10:37:57;;;;;;;7.57;3.30;;;22.30;99.90;;;;;;4995937;28;20058;-83
2021/09/25 10:40:32;;;;;;;8.53;3.40;;;22.50;99.90;;;;;;5000639;28;20027;-84
2021/09/25 10:43:14;;;;;;;5.97;3.35;;;22.60;99.90;;;;;;5002737;28;20098;-83
2021/09/25 10:45:39;;;;;;;6.13;3.25;;;22.60;99.90;;;;;;5004379;28;20141;-83
2021/09/25 10:48:24;;;;;;;5.72;3.03;;;22.60;99.90;;;;;;5003055;28;20053;-83
2021/09/25 10:51:11;;;;;;;6.95;3.05;;;22.70;99.90;;;;;;5000746;28;20061;-84
2021/09/25 10:53:39;;;;;;;4.82;2.90;;;22.90;99.90;;;;;;4999530;28;20427;-82
2021/09/25 10:56:14;;;;;;;4.60;2.67;;;23.00;99.90;;;;;;5004748;28;20019;-83
2021/09/25 10:58:41;;;;;;;4.57;2.97;;;23.10;99.90;;;;;;5003806;28;20037;-84
2021/09/25 11:01:13;;;;;;;4.07;2.58;;;23.20;99.70;;;;;;4996024;28;20038;-81
2021/09/25 11:06:28;;;;;;;5.50;2.80;;;23.40;98.90;;;;;;4995225;28;20042;-81
2021/09/25 11:08:56;;;;;;;4.65;2.63;;;23.30;98.90;;;;;;4999527;28;20030;-81
2021/09/25 11:11:34;;;;;;;5.00;2.78;;;23.30;98.90;;;;;;4995773;28;20027;-83
2021/09/25 11:14:21;;;;;;;7.90;2.83;;;23.10;98.80;;;;;;4987173;28;20446;-83
2021/09/25 11:16:56;;;;;;;4.03;2.63;;;23.30;99.30;;;;;;5002419;28;20086;-81
2021/09/25 11:19:22;;;;;;;6.53;2.90;;;23.30;99.00;;;;;;5001982;28;20023;-84
2021/09/25 11:22:10;;;;;;;6.53;2.38;;;23.40;98.60;;;;;;4999615;28;20053;-84
2021/09/25 11:24:49;;;;;;;4.75;2.33;;;23.50;98.60;;;;;;4999781;28;20093;-81
2021/09/25 11:27:21;;;;;;;5.50;2.63;;;23.70;98.90;;;;;;5014522;28;20117;-81
2021/09/25 11:30:16;;;;;;;6.80;3.17;;;23.90;98.20;;;;;;4997589;28;20076;-83
2021/09/25 11:32:48;;;;;;;5.18;2.45;;;24.10;97.70;;;;;;4985717;28;20039;-84
2021/09/25 11:35:16;;;;;;;4.00;2.40;;;24.40;97.80;;;;;;4988834;28;20022;-83
2021/09/25 11:37:46;;;;;;;5.28;2.60;;;24.60;97.80;;;;;;4987260;28;20030;-82
2021/09/25 11:40:12;;;;;;;4.10;2.50;;;24.70;97.30;;;;;;4995456;28;20018;-83
2021/09/25 11:42:38;;;;;;;5.40;2.45;;;24.80;97.00;;;;;;4985823;28;20031;-83
2021/09/25 11:45:09;;;;;;;6.38;2.60;;;24.90;97.00;;;;;;4986954;28;20026;-84
2021/09/25 11:47:41;;;;;;;4.75;2.10;;;24.90;96.90;;;;;;4986740;28;20117;-82
2021/09/25 11:50:21;;;;;;;5.93;2.67;;;25.10;96.40;;;;;;4988918;28;20098;-82
2021/09/25 11:52:54;;;;;;;5.43;2.50;;;25.20;96.00;;;;;;4981691;28;20077;-83
2021/09/25 11:55:22;;;;;;;4.20;2.30;;;25.30;96.10;;;;;;4995220;28;20030;-82
2021/09/25 11:57:50;;;;;;;4.63;2.50;;;25.20;95.50;;;;;;4997266;28;20053;-83
2021/09/25 12:00:20;;;;;;;4.03;2.28;;;25.20;95.20;;;;;;4984873;28;20124;-82
2021/09/25 12:02:49;;;;;;;6.22;2.40;;;25.30;95.30;;;;;;4989836;28;20054;-83
2021/09/25 12:05:47;;;;;;;5.53;2.30;;;25.50;94.90;;;;;;4989956;28;20030;-80
2021/09/25 12:08:23;;;;;;;4.50;2.55;;;25.60;95.80;;;;;;4986322;28;20459;-82
2021/09/25 12:11:06;;;;;;;4.47;2.47;;;25.70;94.30;;;;;;4987909;28;20031;-82
2021/09/25 12:13:35;;;;;;;4.50;2.40;;;25.80;94.20;;;;;;4992679;28;20041;-82
2021/09/25 12:16:10;;;;;;;6.45;2.70;;;25.90;94.20;;;;;;4992217;28;20034;-82
2021/09/25 12:18:38;;;;;;;5.20;2.05;;;25.90;93.10;;;;;;4996341;28;20061;-83
2021/09/25 12:21:06;;;;;;;3.38;1.98;;;26.00;92.60;;;;;;5014792;28;20037;-83
2021/09/25 12:23:51;;;;;;;4.28;1.80;;;26.10;92.20;;;;;;5015714;28;20034;-83
2021/09/25 12:26:20;;;;;;;3.60;1.60;;;26.20;91.70;;;;;;5013029;28;20027;-81
2021/09/25 12:28:53;;;;;;;4.25;1.90;;;26.40;91.70;;;;;;4994032;28;20372;-82
2021/09/25 12:31:26;;;;;;;5.13;2.28;;;26.50;91.20;;;;;;5011869;28;20029;-82
2021/09/25 12:33:56;;;;;;;3.15;1.70;;;26.60;91.90;;;;;;5014549;28;20037;-81
2021/09/25 12:36:28;;;;;;;5.72;1.90;;;26.80;91.30;;;;;;4986388;28;20022;-83
2021/09/25 12:38:58;;;;;;;3.63;2.28;;;26.90;90.10;;;;;;5003156;28;20026;-81
2021/09/25 12:41:26;;;;;;;3.97;1.80;;;26.70;89.80;;;;;;5002315;28;20131;-83
2021/09/25 12:43:58;;;;;;;4.57;1.55;;;26.60;90.20;;;;;;5007354;28;20112;-83
2021/09/25 12:46:29;;;;;;;4.03;2.00;;;26.70;90.50;;;;;;4992482;28;20042;-81
2021/09/25 12:49:03;;;;;;;4.93;2.10;;;26.70;90.60;;;;;;4988616;28;20311;-83